Kidwelly, United Kingdom
Current Conditions -  °F | °C
As of 12:50 AM on Saturday 29 Nov 2014 (Local Time) from EGOP Reporting Station
Few Clouds Few Clouds  
Wind Chill: 50°   Ceiling: Unl
Heat Index: 50°   Visibility: 4mi
Dew Point: 48°   Wind: 7mph
Humidity: 94%   Direction: 70°ENE
Pressure: 29.68"   Gusts: NA
Location:  51.74°N, 4.3°W
Report Text: EGOP 290050Z AUTO 07006KT 7000 // FEW021/// 10/09 Q1005
Loading
Personal Weather Stations






























Interactive Weather Map New forecast layout! Learn more

10-Day Weather Forecast

Advertisements
Track Severe Weather on mobile